Time;durP1;ratioP1;P1;durP2;ratioP2;P2;SDS_P1;SDS_P2;PMS_P1;PMS_P2;Temp;Humidity;BMP_temperature;BMP_pressure;BME280_temperature;BME280_humidity;BME280_pressure;Samples;Min_cycle;Max_cycle;Signal;HPM_P1;HPM_P2
2021/03/04 00:02:23;;;;;;;;;;;;;;;;;;5007117;28;1902;-62
2021/03/04 00:04:49;;;;;;;;;;;;;;;;;;5005359;28;1557;-62
2021/03/04 00:07:14;;;;;;;;;;;;;;;;;;5016247;28;1397;-62
2021/03/04 00:09:39;;;;;;;;;;;;;;;;;;5004660;28;1458;-63
2021/03/04 00:12:05;;;;;;;;;;;;;;;;;;5005048;28;1393;-62
2021/03/04 00:14:30;;;;;;;;;;;;;;;;;;5005655;28;879;-63
2021/03/04 00:16:56;;;;;;;;;;;;;;;;;;5007651;28;890;-63
2021/03/04 00:19:22;;;;;;;;;;;;;;;;;;5007239;28;1810;-62
2021/03/04 00:21:47;;;;;;;;;;;;;;;;;;5007978;28;1997;-63
2021/03/04 00:24:13;;;;;;;;;;;;;;;;;;5004005;28;1463;-62
2021/03/04 00:26:38;;;;;;;;;;;;;;;;;;5005682;28;848;-62
2021/03/04 00:29:03;;;;;;;;;;;;;;;;;;5014130;28;1350;-63
2021/03/04 00:31:29;;;;;;;;;;;;;;;;;;5010231;28;1417;-63
2021/03/04 00:33:54;;;;;;;;;;;;;;;;;;5018311;28;1571;-62
2021/03/04 00:36:19;;;;;;;;;;;;;;;;;;5025024;28;824;-63
2021/03/04 00:38:45;;;;;;;;;;;;;;;;;;5016400;28;1291;-63
2021/03/04 00:41:10;;;;;;;;;;;;;;;;;;5002432;28;1902;-62
2021/03/04 00:43:36;;;;;;;;;;;;;;;;;;5010161;28;1522;-63
2021/03/04 00:46:01;;;;;;;;;;;;;;;;;;5003484;28;1565;-63
2021/03/04 00:48:27;;;;;;;;;;;;;;;;;;5012277;28;1569;-63
2021/03/04 00:50:52;;;;;;;;;;;;;;;;;;5013155;28;1485;-63
2021/03/04 00:53:18;;;;;;;;;;;;;;;;;;5008955;28;1514;-63
2021/03/04 00:55:43;;;;;;;;;;;;;;;;;;5023029;28;1524;-63
2021/03/04 00:58:08;;;;;;;;;;;;;;;;;;5021134;28;1607;-63
2021/03/04 01:00:34;;;;;;;;;;;;;;;;;;5017052;28;1910;-63
2021/03/04 01:02:59;;;;;;;;;;;;;;;;;;5003238;28;1660;-63
2021/03/04 01:05:25;;;;;;;;;;;;;;;;;;4995303;28;1604;-63
2021/03/04 01:07:51;;;;;;;;;;;;;;;;;;5009063;28;1550;-63
2021/03/04 01:10:18;;;;;;;;;;;;;;;;;;5004890;28;832;-63
2021/03/04 01:12:44;;;;;;;;;;;;;;;;;;5003569;28;1508;-63
2021/03/04 01:15:12;;;;;;;;;;;;;;;;;;5006069;28;1402;-63
2021/03/04 01:17:37;;;;;;;;;;;;;;;;;;5008320;28;1233;-62
2021/03/04 01:20:06;;;;;;;;;;;;;;;;;;5011156;28;831;-62
2021/03/04 01:22:31;;;;;;;;;;;;;;;;;;5006705;28;1963;-63
2021/03/04 01:24:56;;;;;;;;;;;;;;;;;;5021881;28;1499;-63
2021/03/04 01:27:22;;;;;;;;;;;;;;;;;;5019864;28;1505;-63
2021/03/04 01:29:47;;;;;;;;;;;;;;;;;;5011919;28;1548;-63
2021/03/04 01:32:13;;;;;;;;;;;;;;;;;;5007410;28;1003;-63
2021/03/04 01:34:38;;;;;;;;;;;;;;;;;;5006952;28;1438;-63
2021/03/04 01:37:03;;;;;;;;;;;;;;;;;;4991656;28;1532;-62
2021/03/04 01:39:29;;;;;;;;;;;;;;;;;;5006115;28;1496;-63
2021/03/04 01:41:56;;;;;;;;;;;;;;;;;;5007870;28;1974;-62
2021/03/04 01:44:21;;;;;;;;;;;;;;;;;;5027894;28;820;-63
2021/03/04 01:46:47;;;;;;;;;;;;;;;;;;5024434;28;1422;-63
2021/03/04 01:49:12;;;;;;;;;;;;;;;;;;5023910;28;1379;-63
2021/03/04 01:51:38;;;;;;;;;;;;;;;;;;5007184;28;1549;-63
2021/03/04 01:54:04;;;;;;;;;;;;;;;;;;5017166;28;1619;-63
2021/03/04 01:56:30;;;;;;;;;;;;;;;;;;5018693;28;1682;-63
2021/03/04 01:58:55;;;;;;;;;;;;;;;;;;4997861;28;1397;-63
2021/03/04 02:01:21;;;;;;;;;;;;;;;;;;5007147;28;1890;-62
2021/03/04 02:03:46;;;;;;;;;;;;;;;;;;5021964;28;1487;-62
2021/03/04 02:06:13;;;;;;;;;;;;;;;;;;5023582;28;1619;-63
2021/03/04 02:08:55;;;;;;;;;;;;;;;;;;5008348;28;1416;-63
2021/03/04 02:11:24;;;;;;;;;;;;;;;;;;5019262;28;1490;-63
2021/03/04 02:14:04;;;;;;;;;;;;;;;;;;5005178;28;1538;-63
2021/03/04 02:16:33;;;;;;;;;;;;;;;;;;5026038;28;1454;-63
2021/03/04 02:19:00;;;;;;;;;;;;;;;;;;5011106;28;1701;-63
2021/03/04 02:21:30;;;;;;;;;;;;;;;;;;5008730;28;1882;-62
2021/03/04 02:24:08;;;;;;;;;;;;;;;;;;5008056;28;859;-62
2021/03/04 02:26:43;;;;;;;;;;;;;;;;;;5008175;28;1557;-63
2021/03/04 02:29:09;;;;;;;;;;;;;;;;;;4998886;28;1601;-63
2021/03/04 02:31:36;;;;;;;;;;;;;;;;;;5021006;28;1596;-63
2021/03/04 02:34:02;;;;;;;;;;;;;;;;;;5027233;28;835;-63
2021/03/04 02:36:29;;;;;;;;;;;;;;;;;;5009599;28;1607;-63
2021/03/04 02:38:55;;;;;;;;;;;;;;;;;;5019947;28;1588;-63
2021/03/04 02:41:21;;;;;;;;;;;;;;;;;;5026608;28;1918;-63
2021/03/04 02:43:46;;;;;;;;;;;;;;;;;;5012207;28;1456;-63
2021/03/04 02:46:12;;;;;;;;;;;;;;;;;;5008201;28;875;-62
2021/03/04 02:48:40;;;;;;;;;;;;;;;;;;5007597;28;820;-63
2021/03/04 02:51:06;;;;;;;;;;;;;;;;;;5006914;28;1634;-63
2021/03/04 02:53:33;;;;;;;;;;;;;;;;;;5016137;28;1080;-63
2021/03/04 02:55:58;;;;;;;;;;;;;;;;;;5025523;28;1399;-63
2021/03/04 02:58:25;;;;;;;;;;;;;;;;;;5027868;28;935;-63
2021/03/04 03:00:51;;;;;;;;;;;;;;;;;;5026536;28;1902;-63
2021/03/04 03:03:16;;;;;;;;;;;;;;;;;;5020040;28;1635;-63
2021/03/04 03:05:43;;;;;;;;;;;;;;;;;;5007346;28;946;-63
2021/03/04 03:08:13;;;;;;;;;;;;;;;;;;5006830;28;1409;-63
2021/03/04 03:10:38;;;;;;;;;;;;;;;;;;5007168;28;1398;-63
2021/03/04 03:13:03;;;;;;;;;;;;;;;;;;5003758;28;1658;-62
2021/03/04 03:15:29;;;;;;;;;;;;;;;;;;5022378;28;1438;-63
2021/03/04 03:17:55;;;;;;;;;;;;;;;;;;5020936;28;1431;-63
2021/03/04 03:20:21;;;;;;;;;;;;;;;;;;5027335;28;815;-63
2021/03/04 03:22:48;;;;;;;;;;;;;;;;;;5025695;28;1947;-63
2021/03/04 03:25:14;;;;;;;;;;;;;;;;;;5008698;28;1631;-62
2021/03/04 03:27:40;;;;;;;;;;;;;;;;;;5004249;28;1397;-63
2021/03/04 03:30:19;;;;;;;;;;;;;;;;;;5006109;28;816;-63
2021/03/04 03:32:47;;;;;;;;;;;;;;;;;;5009424;28;1453;-63
2021/03/04 03:35:13;;;;;;;;;;;;;;;;;;4987377;28;828;-63
2021/03/04 03:37:39;;;;;;;;;;;;;;;;;;4994383;28;1418;-63
2021/03/04 03:40:05;;;;;;;;;;;;;;;;;;5004975;28;1480;-63
2021/03/04 03:42:31;;;;;;;;;;;;;;;;;;5005005;28;1890;-63
2021/03/04 03:44:57;;;;;;;;;;;;;;;;;;5004478;28;1600;-63
2021/03/04 03:47:23;;;;;;;;;;;;;;;;;;5004160;28;1483;-63
2021/03/04 03:49:49;;;;;;;;;;;;;;;;;;5004714;28;1561;-63
2021/03/04 03:52:15;;;;;;;;;;;;;;;;;;4988550;28;1572;-63
2021/03/04 03:54:41;;;;;;;;;;;;;;;;;;5005285;28;1475;-63
2021/03/04 03:57:06;;;;;;;;;;;;;;;;;;5003575;28;1438;-63
2021/03/04 03:59:34;;;;;;;;;;;;;;;;;;5005762;28;950;-63
2021/03/04 04:02:00;;;;;;;;;;;;;;;;;;5006257;28;1898;-63
2021/03/04 04:04:26;;;;;;;;;;;;;;;;;;5027009;28;839;-63
2021/03/04 04:06:53;;;;;;;;;;;;;;;;;;5018610;28;1472;-62
2021/03/04 04:09:19;;;;;;;;;;;;;;;;;;5005963;28;1405;-63
2021/03/04 04:11:44;;;;;;;;;;;;;;;;;;5002667;28;1547;-63
2021/03/04 04:14:10;;;;;;;;;;;;;;;;;;5012917;28;1584;-63
2021/03/04 04:16:35;;;;;;;;;;;;;;;;;;5003943;28;898;-63
2021/03/04 04:19:01;;;;;;;;;;;;;;;;;;5002128;28;1427;-63
2021/03/04 04:21:27;;;;;;;;;;;;;;;;;;5008575;28;1969;-63
2021/03/04 04:23:52;;;;;;;;;;;;;;;;;;5002264;28;1739;-63
2021/03/04 04:26:18;;;;;;;;;;;;;;;;;;5002167;28;1469;-63
2021/03/04 04:28:44;;;;;;;;;;;;;;;;;;5020589;28;1492;-63
2021/03/04 04:31:09;;;;;;;;;;;;;;;;;;5024610;28;874;-63
2021/03/04 04:33:35;;;;;;;;;;;;;;;;;;5019117;28;1773;-63
2021/03/04 04:36:01;;;;;;;;;;;;;;;;;;5007725;28;1382;-62
2021/03/04 04:38:26;;;;;;;;;;;;;;;;;;5008477;28;1564;-63
2021/03/04 04:40:52;;;;;;;;;;;;;;;;;;5023630;28;1974;-63
2021/03/04 04:43:17;;;;;;;;;;;;;;;;;;5001111;28;1493;-63
2021/03/04 04:45:43;;;;;;;;;;;;;;;;;;5007220;28;1489;-63
2021/03/04 04:48:08;;;;;;;;;;;;;;;;;;5003302;28;1401;-63
2021/03/04 04:50:34;;;;;;;;;;;;;;;;;;5005783;28;1431;-63
2021/03/04 04:52:59;;;;;;;;;;;;;;;;;;5016532;28;1589;-63
2021/03/04 04:55:24;;;;;;;;;;;;;;;;;;5018613;28;1528;-63
2021/03/04 04:57:50;;;;;;;;;;;;;;;;;;5008326;28;890;-63
2021/03/04 05:00:15;;;;;;;;;;;;;;;;;;5002894;28;1616;-63
2021/03/04 05:02:41;;;;;;;;;;;;;;;;;;4989275;28;1911;-63
2021/03/04 05:05:08;;;;;;;;;;;;;;;;;;4987744;28;1209;-63
2021/03/04 05:07:33;;;;;;;;;;;;;;;;;;4989725;28;966;-63
2021/03/04 05:09:59;;;;;;;;;;;;;;;;;;5003732;28;1581;-63
2021/03/04 05:12:24;;;;;;;;;;;;;;;;;;5007306;28;1632;-63
2021/03/04 05:14:51;;;;;;;;;;;;;;;;;;5010591;28;1555;-63
2021/03/04 05:17:17;;;;;;;;;;;;;;;;;;5026733;28;1190;-63
2021/03/04 05:19:42;;;;;;;;;;;;;;;;;;5021614;28;1537;-63
2021/03/04 05:22:07;;;;;;;;;;;;;;;;;;5013544;28;1894;-63
2021/03/04 05:24:33;;;;;;;;;;;;;;;;;;5028738;28;942;-62
2021/03/04 05:26:58;;;;;;;;;;;;;;;;;;5018830;28;1458;-63
2021/03/04 05:29:23;;;;;;;;;;;;;;;;;;5007735;28;878;-63
2021/03/04 05:31:49;;;;;;;;;;;;;;;;;;5025823;28;1585;-64
2021/03/04 05:34:14;;;;;;;;;;;;;;;;;;5028500;28;858;-62
2021/03/04 05:36:40;;;;;;;;;;;;;;;;;;5025221;28;1418;-63
2021/03/04 05:39:05;;;;;;;;;;;;;;;;;;5028610;28;902;-63
2021/03/04 05:41:32;;;;;;;;;;;;;;;;;;5028830;28;1997;-62
2021/03/04 05:43:58;;;;;;;;;;;;;;;;;;5023578;28;1457;-64
2021/03/04 05:46:23;;;;;;;;;;;;;;;;;;5006385;28;1602;-64
2021/03/04 05:48:49;;;;;;;;;;;;;;;;;;5018442;28;1493;-64
2021/03/04 05:51:18;;;;;;;;;;;;;;;;;;5007342;28;1591;-64
2021/03/04 05:53:50;;;;;;;;;;;;;;;;;;5014558;28;1392;-64
2021/03/04 05:56:16;;;;;;;;;;;;;;;;;;5016179;28;1533;-65
2021/03/04 05:58:43;;;;;;;;;;;;;;;;;;5007133;28;1496;-64
2021/03/04 06:01:09;;;;;;;;;;;;;;;;;;5005174;28;1898;-64
2021/03/04 06:03:35;;;;;;;;;;;;;;;;;;5004144;28;1966;-65
2021/03/04 06:06:00;;;;;;;;;;;;;;;;;;5004114;28;1546;-64
2021/03/04 06:08:25;;;;;;;;;;;;;;;;;;5009225;28;887;-64
2021/03/04 06:10:51;;;;;;;;;;;;;;;;;;5007036;28;878;-64
2021/03/04 06:13:16;;;;;;;;;;;;;;;;;;5007663;28;1470;-65
2021/03/04 06:15:42;;;;;;;;;;;;;;;;;;5005535;28;1660;-64
2021/03/04 06:18:07;;;;;;;;;;;;;;;;;;5010121;28;1726;-65
2021/03/04 06:20:39;;;;;;;;;;;;;;;;;;5025495;28;1395;-65
2021/03/04 06:23:04;;;;;;;;;;;;;;;;;;5006770;28;1549;-65
2021/03/04 06:25:30;;;;;;;;;;;;;;;;;;5002087;28;1629;-65
2021/03/04 06:27:55;;;;;;;;;;;;;;;;;;5012402;28;1398;-64
2021/03/04 06:30:21;;;;;;;;;;;;;;;;;;5003891;28;1572;-64
2021/03/04 06:32:54;;;;;;;;;;;;;;;;;;5007176;28;1081;-65
2021/03/04 06:35:20;;;;;;;;;;;;;;;;;;5006728;28;843;-62
2021/03/04 06:37:45;;;;;;;;;;;;;;;;;;5017814;28;1538;-65
2021/03/04 06:40:26;;;;;;;;;;;;;;;;;;5007884;28;1529;-65
2021/03/04 06:42:52;;;;;;;;;;;;;;;;;;5004083;28;1898;-65
2021/03/04 06:45:23;;;;;;;;;;;;;;;;;;5017666;28;1492;-64
2021/03/04 06:47:49;;;;;;;;;;;;;;;;;;5006251;28;1471;-64
2021/03/04 06:50:21;;;;;;;;;;;;;;;;;;5005841;28;1358;-64
2021/03/04 06:52:46;;;;;;;;;;;;;;;;;;5007775;28;1560;-65
2021/03/04 06:55:12;;;;;;;;;;;;;;;;;;5014867;28;1530;-64
2021/03/04 06:57:38;;;;;;;;;;;;;;;;;;5005687;28;1536;-65
2021/03/04 07:00:05;;;;;;;;;;;;;;;;;;5006164;28;1184;-64
2021/03/04 07:02:30;;;;;;;;;;;;;;;;;;5017086;28;1994;-65
2021/03/04 07:04:56;;;;;;;;;;;;;;;;;;5027481;28;907;-64
2021/03/04 07:07:24;;;;;;;;;;;;;;;;;;5025282;28;1300;-64
2021/03/04 07:09:50;;;;;;;;;;;;;;;;;;5009315;28;1618;-65
2021/03/04 07:12:17;;;;;;;;;;;;;;;;;;5026767;28;839;-64
2021/03/04 07:14:44;;;;;;;;;;;;;;;;;;5026142;28;862;-65
2021/03/04 07:17:09;;;;;;;;;;;;;;;;;;5018846;28;1619;-65
2021/03/04 07:19:36;;;;;;;;;;;;;;;;;;4992034;28;1373;-65
2021/03/04 07:22:02;;;;;;;;;;;;;;;;;;4987380;28;1973;-64
2021/03/04 07:24:28;;;;;;;;;;;;;;;;;;5000700;28;1785;-64
2021/03/04 07:26:55;;;;;;;;;;;;;;;;;;5011667;28;1413;-65
2021/03/04 07:29:21;;;;;;;;;;;;;;;;;;5003643;28;1470;-65
2021/03/04 07:31:47;;;;;;;;;;;;;;;;;;5004176;28;1414;-65
2021/03/04 07:34:13;;;;;;;;;;;;;;;;;;5002195;28;1409;-65
2021/03/04 07:36:39;;;;;;;;;;;;;;;;;;4999588;28;1528;-64
2021/03/04 07:39:05;;;;;;;;;;;;;;;;;;5003840;28;1294;-64
2021/03/04 07:41:41;;;;;;;;;;;;;;;;;;5030642;28;1897;-64
2021/03/04 07:44:07;;;;;;;;;;;;;;;;;;5003434;28;1477;-65
2021/03/04 07:46:33;;;;;;;;;;;;;;;;;;5002317;28;1512;-64
2021/03/04 07:48:59;;;;;;;;;;;;;;;;;;5003632;28;1430;-64
2021/03/04 07:51:25;;;;;;;;;;;;;;;;;;5001921;28;1541;-64
2021/03/04 07:53:51;;;;;;;;;;;;;;;;;;5003863;28;1646;-64
2021/03/04 07:56:23;;;;;;;;;;;;;;;;;;5003421;28;1559;-64
2021/03/04 07:58:48;;;;;;;;;;;;;;;;;;4995000;28;1396;-65
2021/03/04 08:01:14;;;;;;;;;;;;;;;;;;4989713;28;1890;-64
2021/03/04 08:03:43;;;;;;;;;;;;;;;;;;5019541;28;1461;-64
2021/03/04 08:06:08;;;;;;;;;;;;;;;;;;5004292;28;1491;-64
2021/03/04 08:08:37;;;;;;;;;;;;;;;;;;5014034;28;1553;-64
2021/03/04 08:11:02;;;;;;;;;;;;;;;;;;5005504;28;828;-65
2021/03/04 08:13:38;;;;;;;;;;;;;;;;;;5003652;28;1460;-62
2021/03/04 08:16:11;;;;;;;;;;;;;;;;;;4990555;28;1415;-63
2021/03/04 08:18:38;;;;;;;;;;;;;;;;;;5017542;28;1727;-63
2021/03/04 08:21:05;;;;;;;;;;;;;;;;;;5004722;28;1976;-62
2021/03/04 08:23:30;;;;;;;;;;;;;;;;;;5001964;28;1793;-63
2021/03/04 08:25:56;;;;;;;;;;;;;;;;;;4998942;28;1525;-64
2021/03/04 08:28:22;;;;;;;;;;;;;;;;;;4978292;28;10544;-63
2021/03/04 08:30:48;;;;;;;;;;;;;;;;;;5015468;28;1418;-63
2021/03/04 08:33:13;;;;;;;;;;;;;;;;;;5003884;28;1580;-62
2021/03/04 08:35:41;;;;;;;;;;;;;;;;;;5017327;28;1411;-63
2021/03/04 08:38:09;;;;;;;;;;;;;;;;;;5005813;28;1486;-64
2021/03/04 08:40:39;;;;;;;;;;;;;;;;;;5016648;28;1774;-64
2021/03/04 08:43:11;;;;;;;;;;;;;;;;;;5002720;28;2022;-65
2021/03/04 08:45:37;;;;;;;;;;;;;;;;;;5003410;28;1612;-64
2021/03/04 08:48:09;;;;;;;;;;;;;;;;;;5004431;28;1470;-68
2021/03/04 08:50:36;;;;;;;;;;;;;;;;;;5017212;28;1505;-69
2021/03/04 08:53:02;;;;;;;;;;;;;;;;;;5007444;28;1365;-69
2021/03/04 08:55:27;;;;;;;;;;;;;;;;;;5006303;28;1507;-69
2021/03/04 08:58:03;;;;;;;;;;;;;;;;;;5008609;28;1581;-70
2021/03/04 09:00:29;;;;;;;;;;;;;;;;;;5008446;28;1387;-62
2021/03/04 09:02:54;;;;;;;;;;;;;;;;;;5004604;28;1896;-69
2021/03/04 09:05:24;;;;;;;;;;;;;;;;;;4997274;28;1618;-70
2021/03/04 09:07:49;;;;;;;;;;;;;;;;;;5000590;28;1492;-69
2021/03/04 09:10:15;;;;;;;;;;;;;;;;;;4998883;28;1490;-69
2021/03/04 09:12:41;;;;;;;;;;;;;;;;;;4999337;28;1467;-70
2021/03/04 09:15:08;;;;;;;;;;;;;;;;;;4998007;28;1464;-68
2021/03/04 09:17:43;;;;;;;;;;;;;;;;;;4998284;28;1590;-70
2021/03/04 09:20:10;;;;;;;;;;;;;;;;;;4992829;28;1607;-68
2021/03/04 09:22:35;;;;;;;;;;;;;;;;;;5027839;28;1898;-70
2021/03/04 09:25:02;;;;;;;;;;;;;;;;;;5006379;28;1600;-69
2021/03/04 09:27:28;;;;;;;;;;;;;;;;;;5006703;28;1500;-71
2021/03/04 09:29:53;;;;;;;;;;;;;;;;;;5001299;28;1644;-67
2021/03/04 09:32:28;;;;;;;;;;;;;;;;;;5007341;28;1619;-66
2021/03/04 09:34:54;;;;;;;;;;;;;;;;;;5007189;28;1485;-67
2021/03/04 09:37:25;;;;;;;;;;;;;;;;;;5014353;28;1486;-63
2021/03/04 09:39:51;;;;;;;;;;;;;;;;;;5014632;28;1754;-66
2021/03/04 09:42:17;;;;;;;;;;;;;;;;;;5015559;28;1957;-67
2021/03/04 09:44:46;;;;;;;;;;;;;;;;;;5013044;28;1460;-68
2021/03/04 09:47:16;;;;;;;;;;;;;;;;;;5007011;28;1709;-67
2021/03/04 09:49:41;;;;;;;;;;;;;;;;;;5005932;28;1545;-68
2021/03/04 09:52:16;;;;;;;;;;;;;;;;;;5004760;28;1451;-65
2021/03/04 09:54:41;;;;;;;;;;;;;;;;;;5010183;28;1384;-66
2021/03/04 09:57:08;;;;;;;;;;;;;;;;;;5007385;28;816;-68
2021/03/04 09:59:44;;;;;;;;;;;;;;;;;;5006804;28;1571;-68
2021/03/04 10:02:09;;;;;;;;;;;;;;;;;;5006462;28;1973;-65
2021/03/04 10:04:35;;;;;;;;;;;;;;;;;;5009391;28;1884;-68
2021/03/04 10:07:01;;;;;;;;;;;;;;;;;;5003798;28;1459;-67
2021/03/04 10:09:27;;;;;;;;;;;;;;;;;;4988251;28;887;-66
2021/03/04 10:11:52;;;;;;;;;;;;;;;;;;4988326;28;870;-69
2021/03/04 10:14:20;;;;;;;;;;;;;;;;;;4991477;28;2404;-67
2021/03/04 10:16:54;;;;;;;;;;;;;;;;;;5000186;28;1428;-65
2021/03/04 10:19:19;;;;;;;;;;;;;;;;;;4988568;28;1443;-67
2021/03/04 10:21:45;;;;;;;;;;;;;;;;;;5001092;28;1894;-64
2021/03/04 10:24:11;;;;;;;;;;;;;;;;;;5013173;28;1488;-62
2021/03/04 10:26:37;;;;;;;;;;;;;;;;;;5012899;28;1467;-64
2021/03/04 10:29:02;;;;;;;;;;;;;;;;;;5015871;28;1596;-70
2021/03/04 10:31:28;;;;;;;;;;;;;;;;;;4998547;28;1446;-62
2021/03/04 10:33:53;;;;;;;;;;;;;;;;;;4993091;28;1675;-68
2021/03/04 10:36:18;;;;;;;;;;;;;;;;;;5000680;28;1679;-68
2021/03/04 10:38:44;;;;;;;;;;;;;;;;;;4995763;28;1483;-67
2021/03/04 10:41:09;;;;;;;;;;;;;;;;;;5007416;28;1890;-62
2021/03/04 10:43:34;;;;;;;;;;;;;;;;;;5013497;28;1486;-62
2021/03/04 10:46:00;;;;;;;;;;;;;;;;;;5013553;28;1527;-68
2021/03/04 10:48:25;;;;;;;;;;;;;;;;;;5008172;28;2368;-68
2021/03/04 10:50:51;;;;;;;;;;;;;;;;;;5011860;28;1498;-69
2021/03/04 10:53:16;;;;;;;;;;;;;;;;;;5025295;28;1150;-69
2021/03/04 10:55:41;;;;;;;;;;;;;;;;;;5025100;28;903;-68
2021/03/04 10:58:07;;;;;;;;;;;;;;;;;;5025413;28;871;-67
2021/03/04 11:00:33;;;;;;;;;;;;;;;;;;5014064;28;1592;-68
2021/03/04 11:02:58;;;;;;;;;;;;;;;;;;5009393;28;1910;-67
2021/03/04 11:05:24;;;;;;;;;;;;;;;;;;5015495;28;1428;-70
2021/03/04 11:07:49;;;;;;;;;;;;;;;;;;5026167;28;832;-68
2021/03/04 11:10:14;;;;;;;;;;;;;;;;;;5026114;28;843;-67
2021/03/04 11:12:40;;;;;;;;;;;;;;;;;;5027306;28;816;-69
2021/03/04 11:15:05;;;;;;;;;;;;;;;;;;5005619;28;1516;-68
2021/03/04 11:17:31;;;;;;;;;;;;;;;;;;5007778;28;799;-67
2021/03/04 11:19:56;;;;;;;;;;;;;;;;;;5006866;28;906;-66
2021/03/04 11:22:21;;;;;;;;;;;;;;;;;;5004831;28;1977;-69
2021/03/04 11:24:47;;;;;;;;;;;;;;;;;;5005591;28;1182;-65
2021/03/04 11:27:13;;;;;;;;;;;;;;;;;;5004470;28;1643;-67
2021/03/04 11:29:39;;;;;;;;;;;;;;;;;;5004011;28;1490;-65
2021/03/04 11:32:05;;;;;;;;;;;;;;;;;;5003559;28;1521;-67
2021/03/04 11:34:30;;;;;;;;;;;;;;;;;;5010746;28;1719;-66
2021/03/04 11:36:55;;;;;;;;;;;;;;;;;;5025296;28;886;-64
2021/03/04 11:39:21;;;;;;;;;;;;;;;;;;5020865;28;1479;-63
2021/03/04 11:41:46;;;;;;;;;;;;;;;;;;5008617;28;1895;-66
2021/03/04 11:44:13;;;;;;;;;;;;;;;;;;5009097;28;1579;-67
2021/03/04 11:46:39;;;;;;;;;;;;;;;;;;5006279;28;840;-65
2021/03/04 11:49:04;;;;;;;;;;;;;;;;;;5006324;28;931;-65
2021/03/04 11:51:29;;;;;;;;;;;;;;;;;;5017718;28;1508;-65
2021/03/04 11:53:55;;;;;;;;;;;;;;;;;;5026312;28;1083;-63
2021/03/04 11:56:20;;;;;;;;;;;;;;;;;;5023053;28;1705;-63
2021/03/04 11:58:46;;;;;;;;;;;;;;;;;;5026145;28;949;-63
2021/03/04 12:01:11;;;;;;;;;;;;;;;;;;5017837;28;1971;-66
2021/03/04 12:03:36;;;;;;;;;;;;;;;;;;5024328;28;1579;-66
2021/03/04 12:06:02;;;;;;;;;;;;;;;;;;5025917;28;895;-70
2021/03/04 12:08:27;;;;;;;;;;;;;;;;;;5026156;28;854;-62
2021/03/04 12:10:53;;;;;;;;;;;;;;;;;;5018285;28;1566;-63
2021/03/04 12:13:18;;;;;;;;;;;;;;;;;;5005341;28;1362;-70
2021/03/04 12:15:44;;;;;;;;;;;;;;;;;;5007550;28;1605;-66
2021/03/04 12:18:09;;;;;;;;;;;;;;;;;;4994697;28;1555;-69
2021/03/04 12:20:35;;;;;;;;;;;;;;;;;;4986231;28;812;-69
2021/03/04 12:23:00;;;;;;;;;;;;;;;;;;4987087;28;1982;-67
2021/03/04 12:25:26;;;;;;;;;;;;;;;;;;5004557;28;1441;-67
2021/03/04 12:27:52;;;;;;;;;;;;;;;;;;5004135;28;1563;-66
2021/03/04 12:30:17;;;;;;;;;;;;;;;;;;5023096;28;1266;-69
2021/03/04 12:32:44;;;;;;;;;;;;;;;;;;5024989;28;843;-66
2021/03/04 12:35:10;;;;;;;;;;;;;;;;;;5005372;28;1602;-68
2021/03/04 12:37:35;;;;;;;;;;;;;;;;;;5002412;28;1426;-69
2021/03/04 12:40:01;;;;;;;;;;;;;;;;;;5005818;28;808;-65
2021/03/04 12:42:26;;;;;;;;;;;;;;;;;;5005691;28;1922;-68
2021/03/04 12:44:52;;;;;;;;;;;;;;;;;;5003475;28;1293;-69
2021/03/04 12:47:17;;;;;;;;;;;;;;;;;;5007512;28;1444;-69
2021/03/04 12:49:43;;;;;;;;;;;;;;;;;;5024039;28;847;-67
2021/03/04 12:52:09;;;;;;;;;;;;;;;;;;5006083;28;1475;-69
2021/03/04 12:54:34;;;;;;;;;;;;;;;;;;5020342;28;1594;-67
2021/03/04 12:56:59;;;;;;;;;;;;;;;;;;5002415;28;1636;-66
2021/03/04 12:59:25;;;;;;;;;;;;;;;;;;5015428;28;1516;-67
2021/03/04 13:01:50;;;;;;;;;;;;;;;;;;5004614;28;1992;-67
2021/03/04 13:04:16;;;;;;;;;;;;;;;;;;5004213;28;1581;-66
2021/03/04 13:06:42;;;;;;;;;;;;;;;;;;5024946;28;840;-67
2021/03/04 13:09:08;;;;;;;;;;;;;;;;;;5025672;28;885;-69
2021/03/04 13:11:33;;;;;;;;;;;;;;;;;;5027816;28;957;-64
2021/03/04 13:13:59;;;;;;;;;;;;;;;;;;5012460;28;1500;-66
2021/03/04 13:16:28;;;;;;;;;;;;;;;;;;5008168;28;1560;-67
2021/03/04 13:18:54;;;;;;;;;;;;;;;;;;5009449;28;828;-68
2021/03/04 13:21:19;;;;;;;;;;;;;;;;;;5008792;28;1997;-67
2021/03/04 13:23:45;;;;;;;;;;;;;;;;;;5007950;28;907;-66
2021/03/04 13:26:10;;;;;;;;;;;;;;;;;;5008125;28;1727;-67
2021/03/04 13:28:36;;;;;;;;;;;;;;;;;;5022949;28;1614;-69
2021/03/04 13:31:01;;;;;;;;;;;;;;;;;;5021984;28;1622;-67
2021/03/04 13:33:27;;;;;;;;;;;;;;;;;;5003226;28;1691;-63
2021/03/04 13:35:53;;;;;;;;;;;;;;;;;;4989130;28;839;-62
2021/03/04 13:38:18;;;;;;;;;;;;;;;;;;5002803;28;1372;-67
2021/03/04 13:40:44;;;;;;;;;;;;;;;;;;5008503;28;1469;-64
2021/03/04 13:43:10;;;;;;;;;;;;;;;;;;5009014;28;1898;-64
2021/03/04 13:45:35;;;;;;;;;;;;;;;;;;5006633;28;1367;-65
2021/03/04 13:48:01;;;;;;;;;;;;;;;;;;5008843;28;1487;-67
2021/03/04 13:50:26;;;;;;;;;;;;;;;;;;5005486;28;1498;-63
2021/03/04 13:52:52;;;;;;;;;;;;;;;;;;5010748;28;1072;-64
2021/03/04 13:55:17;;;;;;;;;;;;;;;;;;5028195;28;863;-69
2021/03/04 13:57:42;;;;;;;;;;;;;;;;;;5028631;28;942;-69
2021/03/04 14:00:08;;;;;;;;;;;;;;;;;;5017638;28;1432;-69
2021/03/04 14:02:33;;;;;;;;;;;;;;;;;;5008181;28;1918;-69
2021/03/04 14:04:59;;;;;;;;;;;;;;;;;;5006722;28;1471;-69
2021/03/04 14:07:24;;;;;;;;;;;;;;;;;;5008298;28;819;-68
2021/03/04 14:09:49;;;;;;;;;;;;;;;;;;5007331;28;891;-68
2021/03/04 14:12:15;;;;;;;;;;;;;;;;;;5006705;28;1518;-70
2021/03/04 14:14:40;;;;;;;;;;;;;;;;;;5008057;28;890;-68
2021/03/04 14:17:05;;;;;;;;;;;;;;;;;;5013549;28;1635;-67
2021/03/04 14:19:31;;;;;;;;;;;;;;;;;;5006161;28;1647;-67
2021/03/04 14:21:56;;;;;;;;;;;;;;;;;;5006391;28;1898;-66
2021/03/04 14:24:21;;;;;;;;;;;;;;;;;;5007050;28;1447;-66
2021/03/04 14:26:47;;;;;;;;;;;;;;;;;;5009420;28;1612;-67
2021/03/04 14:29:12;;;;;;;;;;;;;;;;;;5026737;28;894;-64
2021/03/04 14:31:37;;;;;;;;;;;;;;;;;;5020534;28;1518;-67
2021/03/04 14:34:03;;;;;;;;;;;;;;;;;;5005674;28;1463;-64
2021/03/04 14:36:28;;;;;;;;;;;;;;;;;;5005381;28;1459;-63
2021/03/04 14:38:54;;;;;;;;;;;;;;;;;;5007908;28;900;-63
2021/03/04 14:41:19;;;;;;;;;;;;;;;;;;5007208;28;1973;-67
2021/03/04 14:43:44;;;;;;;;;;;;;;;;;;5007571;28;859;-69
2021/03/04 14:46:10;;;;;;;;;;;;;;;;;;5004822;28;1462;-62
2021/03/04 14:48:35;;;;;;;;;;;;;;;;;;5005442;28;1592;-64
2021/03/04 14:51:00;;;;;;;;;;;;;;;;;;5007719;28;816;-63
2021/03/04 14:53:26;;;;;;;;;;;;;;;;;;5013686;28;1021;-64
2021/03/04 14:55:51;;;;;;;;;;;;;;;;;;5024215;28;1173;-64
2021/03/04 14:58:20;;;;;;;;;;;;;;;;;;4993278;28;1508;-68
2021/03/04 15:00:45;;;;;;;;;;;;;;;;;;4988320;28;819;-68
2021/03/04 15:03:11;;;;;;;;;;;;;;;;;;5002377;28;1973;-68
2021/03/04 15:05:36;;;;;;;;;;;;;;;;;;5012724;28;1464;-67
2021/03/04 15:08:02;;;;;;;;;;;;;;;;;;5007570;28;1270;-70
2021/03/04 15:10:28;;;;;;;;;;;;;;;;;;5023546;28;1498;-67
2021/03/04 15:12:53;;;;;;;;;;;;;;;;;;5026587;28;811;-69
2021/03/04 15:15:19;;;;;;;;;;;;;;;;;;5015920;28;1443;-67
2021/03/04 15:17:44;;;;;;;;;;;;;;;;;;5006293;28;1373;-69
2021/03/04 15:20:10;;;;;;;;;;;;;;;;;;5007030;28;1399;-68
2021/03/04 15:22:35;;;;;;;;;;;;;;;;;;5006198;28;1980;-69
2021/03/04 15:25:01;;;;;;;;;;;;;;;;;;5006558;28;958;-69
2021/03/04 15:27:26;;;;;;;;;;;;;;;;;;5004223;28;1382;-69
2021/03/04 15:29:52;;;;;;;;;;;;;;;;;;5001027;28;1593;-68
2021/03/04 15:32:17;;;;;;;;;;;;;;;;;;4986812;28;792;-68
2021/03/04 15:34:42;;;;;;;;;;;;;;;;;;4986083;28;1726;-69
2021/03/04 15:37:08;;;;;;;;;;;;;;;;;;4987549;28;923;-67
2021/03/04 15:39:34;;;;;;;;;;;;;;;;;;4986249;28;836;-64
2021/03/04 15:42:00;;;;;;;;;;;;;;;;;;4987456;28;1918;-67
2021/03/04 15:44:26;;;;;;;;;;;;;;;;;;4999062;28;1602;-69
2021/03/04 15:46:51;;;;;;;;;;;;;;;;;;5005654;28;1459;-67
2021/03/04 15:49:16;;;;;;;;;;;;;;;;;;5006078;28;1384;-69
2021/03/04 15:51:42;;;;;;;;;;;;;;;;;;5005843;28;1253;-66
2021/03/04 15:54:07;;;;;;;;;;;;;;;;;;5017372;28;1400;-69
2021/03/04 15:56:33;;;;;;;;;;;;;;;;;;5023856;28;1668;-67
2021/03/04 15:58:58;;;;;;;;;;;;;;;;;;5026330;28;950;-67
2021/03/04 16:01:23;;;;;;;;;;;;;;;;;;5026669;28;1906;-66
2021/03/04 16:03:49;;;;;;;;;;;;;;;;;;5024699;28;1519;-64
2021/03/04 16:06:15;;;;;;;;;;;;;;;;;;5025859;28;1078;-68
2021/03/04 16:08:40;;;;;;;;;;;;;;;;;;5005208;28;1415;-66
2021/03/04 16:11:06;;;;;;;;;;;;;;;;;;5006571;28;823;-65
2021/03/04 16:13:31;;;;;;;;;;;;;;;;;;5006394;28;887;-67
2021/03/04 16:15:57;;;;;;;;;;;;;;;;;;5004917;28;1582;-68
2021/03/04 16:18:22;;;;;;;;;;;;;;;;;;5006787;28;891;-67
2021/03/04 16:20:48;;;;;;;;;;;;;;;;;;5007883;28;1561;-65
2021/03/04 16:23:15;;;;;;;;;;;;;;;;;;5002982;28;1918;-67
2021/03/04 16:25:41;;;;;;;;;;;;;;;;;;5005576;28;874;-66
2021/03/04 16:28:07;;;;;;;;;;;;;;;;;;4998649;28;1455;-66
2021/03/04 16:30:32;;;;;;;;;;;;;;;;;;4986689;28;859;-69
2021/03/04 16:32:57;;;;;;;;;;;;;;;;;;5006483;28;1392;-64
2021/03/04 16:35:23;;;;;;;;;;;;;;;;;;5016593;28;1082;-63
2021/03/04 16:37:48;;;;;;;;;;;;;;;;;;5025468;28;807;-65
2021/03/04 16:40:14;;;;;;;;;;;;;;;;;;5013801;28;870;-67
2021/03/04 16:42:39;;;;;;;;;;;;;;;;;;5002933;28;1934;-63
2021/03/04 16:45:05;;;;;;;;;;;;;;;;;;5008620;28;1084;-63
2021/03/04 16:47:30;;;;;;;;;;;;;;;;;;5021369;28;1428;-64
2021/03/04 16:49:56;;;;;;;;;;;;;;;;;;5011739;28;1566;-63
2021/03/04 16:52:21;;;;;;;;;;;;;;;;;;5014445;28;1417;-64
2021/03/04 16:54:47;;;;;;;;;;;;;;;;;;5008614;28;1755;-65
2021/03/04 16:57:13;;;;;;;;;;;;;;;;;;5016119;28;1600;-62
2021/03/04 16:59:38;;;;;;;;;;;;;;;;;;5015367;28;1621;-65